createdAt,value
2022-11-04T00:00:19.397Z,3.44
2022-11-04T00:02:46.159Z,3.45
2022-11-04T00:05:13.046Z,3.42
2022-11-04T00:08:02.767Z,3.40
2022-11-04T00:10:47.813Z,3.41
2022-11-04T00:13:14.510Z,3.46
2022-11-04T00:15:59.860Z,3.45
2022-11-04T00:18:26.589Z,3.47
2022-11-04T00:21:11.625Z,3.45
2022-11-04T00:23:56.883Z,3.43
2022-11-04T00:26:42.216Z,3.46
2022-11-04T00:29:08.906Z,3.47
2022-11-04T00:31:54.242Z,3.50
2022-11-04T00:34:20.938Z,3.50
2022-11-04T00:36:47.605Z,3.51
2022-11-04T00:39:14.340Z,3.51
2022-11-04T00:41:40.970Z,3.55
2022-11-04T00:44:07.720Z,3.59
2022-11-04T00:46:34.895Z,3.62
2022-11-04T00:49:01.642Z,3.65
2022-11-04T00:51:28.773Z,3.72
2022-11-04T00:53:58.087Z,3.72
2022-11-04T00:56:25.179Z,3.65
2022-11-04T00:58:51.923Z,3.68
2022-11-04T01:01:19.381Z,3.59
2022-11-04T01:03:48.506Z,3.59
2022-11-04T01:06:15.671Z,3.51
2022-11-04T01:08:42.304Z,3.47
2022-11-04T01:11:10.184Z,3.45
2022-11-04T01:13:38.235Z,3.50
2022-11-04T01:16:08.277Z,3.48
2022-11-04T01:18:35.592Z,3.54
2022-11-04T01:21:07.670Z,3.56
2022-11-04T01:23:35.275Z,3.59
2022-11-04T01:26:04.850Z,3.58
2022-11-04T01:28:31.550Z,3.56
2022-11-04T01:30:58.422Z,3.57
2022-11-04T01:33:25.420Z,3.59
2022-11-04T01:35:52.096Z,3.55
2022-11-04T01:38:18.817Z,3.58
2022-11-04T01:40:45.440Z,3.55
2022-11-04T01:43:20.567Z,3.59
2022-11-04T01:46:01.357Z,3.50
2022-11-04T01:48:33.614Z,3.44
2022-11-04T01:51:00.648Z,3.48
2022-11-04T01:53:34.884Z,3.47
2022-11-04T01:56:11.912Z,3.44
2022-11-04T01:58:51.183Z,3.42
2022-11-04T02:01:18.588Z,3.42
2022-11-04T02:04:17.337Z,3.41
2022-11-04T02:06:46.806Z,3.50
2022-11-04T02:09:14.380Z,3.51
2022-11-04T02:11:59.523Z,3.51
2022-11-04T02:14:26.554Z,3.48
2022-11-04T02:16:59.437Z,3.48
2022-11-04T02:19:26.058Z,3.45
2022-11-04T02:22:17.519Z,3.45
2022-11-04T02:24:55.055Z,3.36
2022-11-04T02:27:41.922Z,3.36
2022-11-04T02:30:15.546Z,3.36
2022-11-04T02:33:20.063Z,3.32
2022-11-04T02:35:56.018Z,3.34
2022-11-04T02:38:34.808Z,3.35
2022-11-04T02:41:16.540Z,3.34
2022-11-04T02:44:04.521Z,3.30
2022-11-04T02:46:43.295Z,3.25
2022-11-04T02:49:17.741Z,3.34
2022-11-04T02:51:53.627Z,3.32
2022-11-04T02:54:26.985Z,3.23
2022-11-04T02:56:57.261Z,3.23
2022-11-04T02:59:28.836Z,3.25
2022-11-04T03:01:59.227Z,3.17
2022-11-04T03:04:34.686Z,3.16
2022-11-04T03:07:04.984Z,3.12
2022-11-04T03:09:34.896Z,3.08
2022-11-04T03:12:09.628Z,3.05
2022-11-04T03:14:43.422Z,3.06
2022-11-04T03:17:28.030Z,3.04
2022-11-04T03:19:58.572Z,3.08
2022-11-04T03:22:30.783Z,3.08
2022-11-04T03:24:58.167Z,3.09
2022-11-04T03:27:27.165Z,3.07
2022-11-04T03:30:22.315Z,3.08
2022-11-04T03:33:24.348Z,3.06
2022-11-04T03:35:51.195Z,3.02
2022-11-04T03:38:17.952Z,2.94
2022-11-04T03:40:44.851Z,3.00
2022-11-04T03:43:16.283Z,2.93
2022-11-04T03:45:43.929Z,2.91
2022-11-04T03:48:12.515Z,2.88
2022-11-04T03:50:51.185Z,2.87
2022-11-04T03:53:22.612Z,2.89
2022-11-04T03:56:17.365Z,2.92
2022-11-04T03:59:21.310Z,2.97
2022-11-04T04:01:57.901Z,2.96
2022-11-04T04:04:27.801Z,2.96
2022-11-04T04:07:01.707Z,2.93
2022-11-04T04:09:54.984Z,2.95
2022-11-04T04:12:36.691Z,3.01
2022-11-04T04:15:11.223Z,2.98
2022-11-04T04:17:43.030Z,2.94
2022-11-04T04:20:15.951Z,2.95
2022-11-04T04:22:48.320Z,2.98
2022-11-04T04:25:35.625Z,2.99
2022-11-04T04:28:04.569Z,3.04
2022-11-04T04:30:31.723Z,3.12
2022-11-04T04:33:06.063Z,3.23
2022-11-04T04:35:42.570Z,3.32
2022-11-04T04:38:48.844Z,3.43
2022-11-04T04:41:45.721Z,3.42
2022-11-04T04:44:42.736Z,3.45
2022-11-04T04:47:19.840Z,3.46
2022-11-04T04:49:50.939Z,3.44
2022-11-04T04:52:17.741Z,3.50
2022-11-04T04:54:45.088Z,3.43
2022-11-04T04:57:12.070Z,3.40
2022-11-04T04:59:38.705Z,3.43
2022-11-04T05:02:05.609Z,3.42
2022-11-04T05:04:32.321Z,3.41
2022-11-04T05:06:59.337Z,3.36
2022-11-04T05:09:26.467Z,3.34
2022-11-04T05:11:53.146Z,3.25
2022-11-04T05:14:19.884Z,3.23
2022-11-04T05:16:46.552Z,3.20
2022-11-04T05:19:13.281Z,3.20
2022-11-04T05:29:35.448Z,3.19
2022-11-04T05:32:34.327Z,3.23
2022-11-04T05:35:06.315Z,3.30
2022-11-04T05:37:33.039Z,3.35
2022-11-04T05:39:59.757Z,3.42
2022-11-04T05:42:26.455Z,3.52
2022-11-04T05:44:53.151Z,3.52
2022-11-04T05:47:19.854Z,3.52
2022-11-04T05:49:46.562Z,3.43
2022-11-04T05:52:13.282Z,3.36
2022-11-04T05:54:39.985Z,3.26
2022-11-04T05:57:06.666Z,3.14
2022-11-04T05:59:33.355Z,3.02
2022-11-04T06:02:00.056Z,2.94
2022-11-04T06:04:26.900Z,2.94
2022-11-04T06:06:53.532Z,2.84
2022-11-04T06:09:20.253Z,2.89
2022-11-04T06:11:47.025Z,2.91
2022-11-04T06:14:18.623Z,2.91
2022-11-04T06:16:45.754Z,2.94
2022-11-04T06:19:15.979Z,2.88
2022-11-04T06:21:42.955Z,2.92
2022-11-04T06:24:09.571Z,2.93
2022-11-04T06:26:36.249Z,2.92
2022-11-04T06:29:02.896Z,2.92
2022-11-04T06:31:29.610Z,2.91
2022-11-04T06:33:56.294Z,2.93
2022-11-04T06:36:23.100Z,2.91
2022-11-04T06:38:49.825Z,2.91
2022-11-04T06:41:17.531Z,2.90
2022-11-04T06:43:44.833Z,2.88
2022-11-04T06:46:50.250Z,2.91
2022-11-04T06:49:20.098Z,2.95
2022-11-04T06:51:47.806Z,2.92
2022-11-04T06:54:15.576Z,2.99
2022-11-04T06:56:42.841Z,2.99
2022-11-04T06:59:16.326Z,2.92
2022-11-04T07:01:43.209Z,2.90
2022-11-04T07:04:10.281Z,2.89
2022-11-04T07:06:39.720Z,2.80
2022-11-04T07:09:11.518Z,2.78
2022-11-04T07:11:38.462Z,2.80
2022-11-04T07:14:05.237Z,2.89
2022-11-04T07:16:31.965Z,2.92
2022-11-04T07:18:59.069Z,2.89
2022-11-04T07:21:25.926Z,2.82
2022-11-04T07:23:52.799Z,2.81
2022-11-04T07:26:19.577Z,2.66
2022-11-04T07:28:46.272Z,2.59
2022-11-04T07:31:14.006Z,2.54
2022-11-04T07:33:40.859Z,2.59
2022-11-04T07:36:11.205Z,2.57
2022-11-04T07:38:37.861Z,2.65
2022-11-04T07:41:05.272Z,2.69
2022-11-04T07:43:32.063Z,2.84
2022-11-04T07:46:00.701Z,3.03
2022-11-04T07:48:27.680Z,3.16
2022-11-04T07:51:01.406Z,3.24
2022-11-04T07:53:30.158Z,3.46
2022-11-04T07:55:57.789Z,4.24
2022-11-04T07:58:25.784Z,4.90
2022-11-04T08:00:59.618Z,5.40
2022-11-04T08:03:26.562Z,5.79
2022-11-04T08:05:58.419Z,6.34
2022-11-04T08:08:25.637Z,6.70
2022-11-04T08:10:56.998Z,6.90
2022-11-04T08:13:24.275Z,7.33
2022-11-04T08:15:50.955Z,7.61
2022-11-04T08:18:17.721Z,7.24
2022-11-04T08:20:51.469Z,7.12
2022-11-04T08:23:18.799Z,7.73
2022-11-04T08:25:46.177Z,7.90
2022-11-04T08:28:17.516Z,7.93
2022-11-04T08:31:02.597Z,8.35
2022-11-04T08:33:31.678Z,8.29
2022-11-04T08:36:06.070Z,8.29
2022-11-04T08:38:34.432Z,8.45
2022-11-04T08:41:03.910Z,8.62
2022-11-04T08:43:30.953Z,9.08
2022-11-04T08:45:57.595Z,9.08
2022-11-04T08:48:24.327Z,9.14
2022-11-04T08:50:52.958Z,9.27
2022-11-04T08:53:20.220Z,8.82
2022-11-04T08:55:47.440Z,8.64
2022-11-04T08:58:14.280Z,8.85
2022-11-04T09:00:40.984Z,8.54
2022-11-04T09:03:08.557Z,9.22
2022-11-04T09:05:48.141Z,9.27
2022-11-04T09:08:18.293Z,9.83
2022-11-04T09:10:46.967Z,9.76
2022-11-04T09:13:15.683Z,9.72
2022-11-04T09:15:43.363Z,10.24
2022-11-04T09:18:10.121Z,10.01
2022-11-04T09:20:39.635Z,10.31
2022-11-04T09:23:06.727Z,10.18
2022-11-04T09:25:33.697Z,10.24
2022-11-04T09:28:01.029Z,10.06
2022-11-04T09:30:28.220Z,10.54
2022-11-04T09:32:54.974Z,10.25
2022-11-04T09:35:21.713Z,9.99
2022-11-04T09:37:48.465Z,10.29
2022-11-04T09:40:19.353Z,10.31
2022-11-04T09:43:17.468Z,9.84
2022-11-04T09:45:44.565Z,9.90
2022-11-04T09:48:28.108Z,10.18
2022-11-04T09:50:58.889Z,10.25
2022-11-04T09:53:32.612Z,10.06
2022-11-04T09:56:04.012Z,10.22
2022-11-04T09:58:39.268Z,10.56
2022-11-04T10:01:18.415Z,10.60
2022-11-04T10:03:54.294Z,10.03
2022-11-04T10:06:38.212Z,10.34
2022-11-04T10:09:04.827Z,10.20
2022-11-04T10:12:01.919Z,10.32
2022-11-04T10:14:54.174Z,10.86
2022-11-04T10:17:49.236Z,10.58
2022-11-04T10:20:31.296Z,9.81
2022-11-04T10:23:32.551Z,9.97
2022-11-04T10:26:16.137Z,9.79
2022-11-04T10:28:49.225Z,9.81
2022-11-04T10:31:18.465Z,9.49
2022-11-04T10:33:58.488Z,9.25
2022-11-04T10:36:26.191Z,9.27
2022-11-04T10:38:55.249Z,9.20
2022-11-04T10:41:24.987Z,9.24
2022-11-04T10:44:05.566Z,9.14
2022-11-04T10:46:38.137Z,9.37
2022-11-04T10:49:36.125Z,9.14
2022-11-04T10:52:05.550Z,9.34
2022-11-04T10:54:40.543Z,9.36
2022-11-04T10:57:07.279Z,9.43
2022-11-04T10:59:36.892Z,9.51
2022-11-04T11:02:04.564Z,9.53
2022-11-04T11:04:36.413Z,9.46
2022-11-04T11:07:05.835Z,9.41
2022-11-04T11:09:48.625Z,9.45
2022-11-04T11:12:50.112Z,9.27
2022-11-04T11:15:35.008Z,9.42
2022-11-04T11:18:07.638Z,9.47
2022-11-04T11:20:37.852Z,9.32
2022-11-04T11:23:10.326Z,9.43
2022-11-04T11:25:45.280Z,9.38
2022-11-04T11:28:22.230Z,9.29
2022-11-04T11:30:48.907Z,9.19
2022-11-04T11:33:20.252Z,9.14
2022-11-04T11:35:55.747Z,9.13
2022-11-04T11:38:24.826Z,9.15
2022-11-04T11:41:22.777Z,9.25
2022-11-04T11:43:45.589Z,9.28
2022-11-04T11:46:13.416Z,9.44
2022-11-04T11:48:42.866Z,9.45
2022-11-04T11:51:29.032Z,9.50
2022-11-04T11:54:09.127Z,9.57
2022-11-04T11:57:11.456Z,9.59
2022-11-04T12:02:40.064Z,9.62
2022-11-04T12:11:07.803Z,9.65
2022-11-04T12:13:44.779Z,9.63
2022-11-04T12:16:43.909Z,9.67
2022-11-04T12:19:13.693Z,9.66
2022-11-04T12:21:49.405Z,9.65
2022-11-04T12:24:31.892Z,9.71
2022-11-04T12:27:26.239Z,9.70
2022-11-04T12:30:04.181Z,9.70
2022-11-04T12:32:52.331Z,9.69
2022-11-04T12:35:28.085Z,9.73
2022-11-04T12:38:28.781Z,9.74
2022-11-04T12:41:27.787Z,9.71
2022-11-04T12:43:55.305Z,9.66
2022-11-04T12:47:18.271Z,9.66
2022-11-04T12:50:03.259Z,9.69
2022-11-04T12:52:35.746Z,9.72
2022-11-04T12:55:20.466Z,9.66
2022-11-04T12:58:12.193Z,9.69
2022-11-04T13:00:42.231Z,9.72
2022-11-04T13:03:50.242Z,9.72
2022-11-04T13:06:21.996Z,9.66
2022-11-04T13:08:57.941Z,9.68
2022-11-04T13:11:59.166Z,9.74
2022-11-04T13:14:32.703Z,9.74
2022-11-04T13:17:04.586Z,9.72
2022-11-04T13:19:41.321Z,9.63
2022-11-04T13:22:24.448Z,9.71
2022-11-04T13:25:16.694Z,9.73
2022-11-04T13:27:46.050Z,9.67
2022-11-04T13:30:40.337Z,9.69
2022-11-04T13:33:19.123Z,9.77
2022-11-04T13:36:12.196Z,9.73
2022-11-04T13:38:44.955Z,9.67
2022-11-04T13:41:40.180Z,9.69
2022-11-04T13:44:19.996Z,9.62
2022-11-04T13:46:54.158Z,9.66
2022-11-04T13:49:30.591Z,9.64
2022-11-04T13:52:11.866Z,9.59
2022-11-04T13:54:42.128Z,9.62
2022-11-04T13:57:22.473Z,9.58
2022-11-04T14:00:07.703Z,9.50
2022-11-04T14:02:41.459Z,9.55
2022-11-04T14:05:40.562Z,9.53
2022-11-04T14:08:08.749Z,9.51
2022-11-04T14:10:38.324Z,9.63
2022-11-04T14:13:34.918Z,9.63
2022-11-04T14:16:17.503Z,9.61
2022-11-04T14:18:46.281Z,9.61
2022-11-04T14:21:25.439Z,9.56
2022-11-04T14:23:55.345Z,9.51
2022-11-04T14:26:40.812Z,9.47
2022-11-04T14:29:25.477Z,9.50
2022-11-04T14:31:55.356Z,9.54
2022-11-04T14:34:33.444Z,9.53
2022-11-04T14:37:02.917Z,9.59
2022-11-04T14:40:02.402Z,9.49
2022-11-04T14:42:46.938Z,9.48
2022-11-04T14:45:19.026Z,9.47
2022-11-04T14:47:49.948Z,9.47
2022-11-04T14:50:24.563Z,9.50
2022-11-04T14:52:56.363Z,9.47
2022-11-04T14:55:27.062Z,9.45
2022-11-04T14:58:00.752Z,9.40
2022-11-04T15:00:32.104Z,9.39
2022-11-04T15:03:04.810Z,9.36
2022-11-04T15:05:36.241Z,9.39
2022-11-04T15:08:31.846Z,9.33
2022-11-04T15:11:42.655Z,9.34
2022-11-04T15:14:14.731Z,9.30
2022-11-04T15:16:44.145Z,9.25
2022-11-04T15:19:11.088Z,9.19
2022-11-04T15:21:41.950Z,9.20
2022-11-04T15:24:17.724Z,9.17
2022-11-04T15:26:50.576Z,9.12
2022-11-04T15:29:18.968Z,9.07
2022-11-04T15:32:00.283Z,9.01
2022-11-04T15:34:29.572Z,9.04
2022-11-04T15:37:00.402Z,8.97
2022-11-04T15:39:31.784Z,8.99
2022-11-04T15:42:19.377Z,8.96
2022-11-04T15:44:52.069Z,8.95
2022-11-04T15:47:18.693Z,8.86
2022-11-04T15:49:47.188Z,8.74
2022-11-04T15:52:26.589Z,8.61
2022-11-04T15:54:58.549Z,8.58
2022-11-04T15:57:27.515Z,8.50
2022-11-04T15:59:59.705Z,8.47
2022-11-04T16:02:35.397Z,8.52
2022-11-04T16:05:29.828Z,8.52
2022-11-04T16:08:18.770Z,8.43
2022-11-04T16:10:45.610Z,8.42
2022-11-04T16:13:15.933Z,8.32
2022-11-04T16:15:47.061Z,8.26
2022-11-04T16:18:29.964Z,8.16
2022-11-04T16:20:57.814Z,8.09
2022-11-04T16:23:28.228Z,8.08
2022-11-04T16:26:06.731Z,8.14
2022-11-04T16:28:39.514Z,8.06
2022-11-04T16:31:27.973Z,7.89
2022-11-04T16:33:54.872Z,7.93
2022-11-04T16:36:24.621Z,7.73
2022-11-04T16:38:55.476Z,7.65
2022-11-04T16:41:24.101Z,7.60
2022-11-04T16:43:51.316Z,7.55
2022-11-04T16:46:18.519Z,7.59
2022-11-04T16:48:45.505Z,7.57
2022-11-04T16:51:16.461Z,7.59
2022-11-04T16:53:43.152Z,7.58
2022-11-04T16:56:10.167Z,7.56
2022-11-04T16:58:36.874Z,7.52
2022-11-04T17:01:05.623Z,7.52
2022-11-04T17:03:33.365Z,7.52
2022-11-04T17:06:00.069Z,7.51
2022-11-04T17:08:27.394Z,7.53
2022-11-04T17:10:54.308Z,7.53
2022-11-04T17:13:21.292Z,7.51
2022-11-04T17:15:48.496Z,7.48
2022-11-04T17:18:17.619Z,7.49
2022-11-04T17:20:55.361Z,7.47
2022-11-04T17:23:22.196Z,7.46
2022-11-04T17:25:49.468Z,7.44
2022-11-04T17:28:16.221Z,7.47
2022-11-04T17:30:43.727Z,7.46
2022-11-04T17:33:15.416Z,7.52
2022-11-04T17:35:43.924Z,7.49
2022-11-04T17:38:14.124Z,7.53
2022-11-04T17:40:59.846Z,7.48
2022-11-04T17:43:44.998Z,7.40
2022-11-04T17:46:31.253Z,7.40
2022-11-04T17:48:58.472Z,7.34
2022-11-04T17:51:25.419Z,7.30
2022-11-04T17:53:52.302Z,7.23
2022-11-04T17:56:21.321Z,7.19
2022-11-04T17:58:48.973Z,7.20
2022-11-04T18:01:20.127Z,7.10
2022-11-04T18:03:46.895Z,7.03
2022-11-04T18:06:13.702Z,7.01
2022-11-04T18:08:40.609Z,6.98
2022-11-04T18:11:09.952Z,6.80
2022-11-04T18:13:37.216Z,6.83
2022-11-04T18:16:14.494Z,6.70
2022-11-04T18:18:41.199Z,6.63
2022-11-04T18:21:08.933Z,6.56
2022-11-04T18:23:35.667Z,6.57
2022-11-04T18:26:03.149Z,6.53
2022-11-04T18:28:29.917Z,6.45
2022-11-04T18:30:56.643Z,6.46
2022-11-04T18:33:23.309Z,6.43
2022-11-04T18:35:49.963Z,6.44
2022-11-04T18:38:16.685Z,6.43
2022-11-04T18:40:43.717Z,6.41
2022-11-04T18:43:10.721Z,6.49
2022-11-04T18:45:37.612Z,6.43
2022-11-04T18:48:04.928Z,6.38
2022-11-04T18:50:32.135Z,6.33
2022-11-04T18:52:59.072Z,6.21
2022-11-04T18:55:25.761Z,6.21
2022-11-04T18:57:55.612Z,6.18
2022-11-04T19:00:22.614Z,6.20
2022-11-04T19:02:49.527Z,6.25
2022-11-04T19:05:16.902Z,6.27
2022-11-04T19:07:44.138Z,6.30
2022-11-04T19:10:12.094Z,6.37
2022-11-04T19:12:57.661Z,6.38
2022-11-04T19:15:24.925Z,6.35
2022-11-04T19:17:51.742Z,6.32
2022-11-04T19:20:18.554Z,6.27
2022-11-04T19:22:45.294Z,6.28
2022-11-04T19:25:12.008Z,6.32
2022-11-04T19:27:38.815Z,6.28
2022-11-04T19:30:06.042Z,6.31
2022-11-04T19:32:32.986Z,6.27
2022-11-04T19:34:59.606Z,6.27
2022-11-04T19:37:26.332Z,6.17
2022-11-04T19:39:53.064Z,6.07
2022-11-04T19:42:38.175Z,6.11
2022-11-04T19:45:05.477Z,6.01
2022-11-04T19:47:32.318Z,5.99
2022-11-04T19:49:59.114Z,6.02
2022-11-04T19:52:25.795Z,5.99
2022-11-04T19:54:52.541Z,5.98
2022-11-04T19:57:19.206Z,6.01
2022-11-04T19:59:45.895Z,6.04
2022-11-04T20:02:16.207Z,6.10
2022-11-04T20:04:43.120Z,6.09
2022-11-04T20:07:09.823Z,6.09
2022-11-04T20:09:36.473Z,6.07
2022-11-04T20:12:21.826Z,6.08
2022-11-04T20:14:48.519Z,5.98
2022-11-04T20:17:15.158Z,5.96
2022-11-04T20:19:41.916Z,5.95
2022-11-04T20:22:08.817Z,5.96
2022-11-04T20:24:35.731Z,5.92
2022-11-04T20:27:02.417Z,5.89
2022-11-04T20:29:29.093Z,5.88
2022-11-04T20:31:55.736Z,5.84
2022-11-04T20:34:22.436Z,5.82
2022-11-04T20:36:49.063Z,5.80
2022-11-04T20:39:18.985Z,5.80
2022-11-04T20:41:45.890Z,5.77
2022-11-04T20:44:13.694Z,5.78
2022-11-04T20:46:40.983Z,5.79
2022-11-04T20:49:07.806Z,5.83
2022-11-04T20:51:36.925Z,5.87
2022-11-04T20:54:06.653Z,5.90
2022-11-04T20:56:36.317Z,5.92
2022-11-04T20:59:04.636Z,5.96
2022-11-04T21:01:37.126Z,5.99
2022-11-04T21:04:19.457Z,5.97
2022-11-04T21:06:51.820Z,6.04
2022-11-04T21:09:20.825Z,6.05
2022-11-04T21:11:47.963Z,6.05
2022-11-04T21:14:16.675Z,6.09
2022-11-04T21:16:43.790Z,6.07
2022-11-04T21:19:12.026Z,6.09
2022-11-04T21:21:41.029Z,6.09
2022-11-04T21:24:08.182Z,6.05
2022-11-04T21:26:35.859Z,6.04
2022-11-04T21:29:10.557Z,5.96
2022-11-04T21:31:37.560Z,5.97
2022-11-04T21:34:05.244Z,5.95
2022-11-04T21:36:32.651Z,5.98
2022-11-04T21:39:00.003Z,5.96
2022-11-04T21:41:29.725Z,5.89
2022-11-04T21:43:58.233Z,5.88
2022-11-04T21:46:25.936Z,5.86
2022-11-04T21:48:52.934Z,5.88
2022-11-04T21:51:22.548Z,5.95
2022-11-04T21:53:49.341Z,6.03
2022-11-04T21:56:24.506Z,6.06
2022-11-04T21:58:52.978Z,6.12
2022-11-04T22:01:24.696Z,6.10
2022-11-04T22:03:59.208Z,6.11
2022-11-04T22:06:33.252Z,6.14
2022-11-04T22:09:01.484Z,6.11
2022-11-04T22:11:30.349Z,6.11
2022-11-04T22:14:03.880Z,6.12
2022-11-04T22:16:32.847Z,6.15
2022-11-04T22:19:01.930Z,6.16
2022-11-04T22:21:30.917Z,6.16
2022-11-04T22:23:58.669Z,6.15
2022-11-04T22:26:27.668Z,6.06
2022-11-04T22:28:55.607Z,6.04
2022-11-04T22:31:25.762Z,6.01
2022-11-04T22:33:53.393Z,5.97
2022-11-04T22:36:20.622Z,5.95
2022-11-04T22:38:47.437Z,5.92
2022-11-04T22:41:17.390Z,5.86
2022-11-04T22:43:44.275Z,5.73
2022-11-04T22:46:19.058Z,5.68
2022-11-04T22:48:46.984Z,5.65
2022-11-04T22:51:16.855Z,5.66
2022-11-04T22:53:44.219Z,5.63
2022-11-04T22:56:13.283Z,5.57
2022-11-04T22:58:40.001Z,5.57
2022-11-04T23:01:12.757Z,5.57
2022-11-04T23:03:39.991Z,5.47
2022-11-04T23:06:08.334Z,5.51
2022-11-04T23:08:36.331Z,5.48
2022-11-04T23:11:28.739Z,5.40
2022-11-04T23:14:20.420Z,5.36
2022-11-04T23:17:08.677Z,5.33
2022-11-04T23:19:39.259Z,5.34
2022-11-04T23:22:25.327Z,5.35
2022-11-04T23:25:09.603Z,5.42
2022-11-04T23:27:55.161Z,5.46
2022-11-04T23:30:24.075Z,5.47
2022-11-04T23:33:10.778Z,5.44
2022-11-04T23:36:02.175Z,5.42
2022-11-04T23:38:29.667Z,5.41
2022-11-04T23:41:17.501Z,5.41
2022-11-04T23:43:44.649Z,5.40
2022-11-04T23:46:30.726Z,5.39
2022-11-04T23:49:16.591Z,5.37
2022-11-04T23:52:01.919Z,5.39
2022-11-04T23:54:47.058Z,5.39
2022-11-04T23:57:34.970Z,5.35
